Latest Weather Observations for Bombala AWS

IDN60801

Issued at 6:23 pm EST Saturday 9 May 2026 (issued every 10 minutes, with the page automatically refreshed every 10 minutes)

About weather observations | Map of weather stations | Latest weather observations for NSW | Other Formats
Station Details ID: 070328 Name: BOMBALA AWS Lat: -37.00 Lon: 149.23 Height: 760.5 m
Data from the previous 72 hours. | See also: Recent months at Bombala AWS
Date/Time
EST
Temp
°C
App
Temp
°C
Dew
Point
°C
Rel
Hum
%
Delta-T
°C
Wind Press
QNH
hPa
Press
MSL
hPa
Rain since
9am
mm
Dir  Spd
km/h
Gust
km/h
Spd
kts
Gust
kts
09/06:00pm 10.7 7.4 6.6 76 2.0 SW 13 15 7 8 1025.8 1026.2 0.0
09/05:30pm 11.5 8.0 7.4 76 2.1 WSW 15 17 8 9 1025.3 1025.6 0.0
09/05:00pm 13.2 10.3 8.1 71 2.6 WSW 13 15 7 8 1024.9 1025.3 0.0
09/04:30pm 15.0 13.0 8.5 65 3.4 WSW 9 13 5 7 1024.8 1025.2 0.0
09/04:00pm 15.7 13.4 8.9 64 3.6 WSW 11 13 6 7 1024.7 1025.1 0.0
09/03:30pm 15.6 12.9 9.1 65 3.5 WSW 13 17 7 9 1024.6 1025.0 0.0
09/03:00pm 15.2 12.7 8.4 64 3.6 WNW 11 15 6 8 1024.6 1025.0 0.0
09/02:30pm 15.1 12.7 8.6 65 3.4 W 11 15 6 8 1024.6 1025.0 0.0
09/02:00pm 15.1 13.1 8.8 66 3.3 WNW 9 17 5 9 1024.5 1024.9 0.0
09/01:30pm 14.4 12.4 8.6 68 3.0 W 9 13 5 7 1024.7 1025.1 0.0
09/01:00pm 13.8 11.0 8.6 71 2.7 W 13 17 7 9 1024.9 1025.3 0.0
09/12:30pm 13.2 10.1 8.7 74 2.4 W 15 19 8 10 1025.0 1025.4 0.0
09/12:00pm 12.6 9.3 8.1 74 2.3 W 15 19 8 10 1025.4 1025.7 0.0
09/11:30am 11.8 8.0 7.7 76 2.1 W 17 22 9 12 1025.6 1026.0 0.0
09/11:00am 10.9 6.4 7.0 77 1.9 W 20 28 11 15 1025.8 1026.2 0.0
09/10:30am 9.9 5.2 6.1 77 1.8 W 20 26 11 14 1025.8 1026.2 0.0
09/10:00am 8.8 4.1 5.9 82 1.4 W 20 32 11 17 1025.7 1026.1 0.0
09/09:30am 8.6 3.8 5.7 82 1.4 W 20 28 11 15 1025.6 1026.0 0.0
09/09:00am 8.2 3.1 5.8 85 1.1 W 22 28 12 15 1025.7 1026.1 0.8
09/08:30am 7.9 3.7 5.7 86 1.0 W 17 26 9 14 1025.3 1025.6 0.8
09/08:00am 7.6 3.7 5.2 85 1.1 W 15 24 8 13 1025.0 1025.4 0.8
09/07:30am 7.4 3.4 5.0 85 1.1 W 15 24 8 13 1024.7 1025.1 0.8
09/07:00am 7.3 2.3 4.8 84 1.1 WSW 20 30 11 16 1024.1 1024.4 0.8
09/06:30am 7.4 2.1 4.9 84 1.2 WSW 22 33 12 18 1023.9 1024.2 0.8
09/06:00am 7.5 3.5 5.0 84 1.2 WSW 15 24 8 13 1023.6 1024.0 0.8
09/05:30am 7.5 3.1 5.0 84 1.2 WSW 17 24 9 13 1023.3 1023.7 0.8
09/05:00am 7.5 3.1 5.0 84 1.2 WSW 17 22 9 12 1023.2 1023.5 0.8
09/04:30am 7.5 2.8 5.1 85 1.1 WSW 19 32 10 17 1023.0 1023.3 0.8
09/04:00am 7.3 3.1 5.6 89 0.8 WSW 17 24 9 13 1022.6 1022.9 0.8
09/03:30am 7.3 3.5 5.6 89 0.8 W 15 19 8 10 1022.7 1023.0 0.8
09/03:00am 7.4 3.1 5.4 87 0.9 WSW 17 26 9 14 1022.7 1023.0 0.8
09/02:30am 7.5 3.3 5.8 89 0.8 WSW 17 26 9 14 1022.5 1022.8 0.8
09/02:00am 7.4 3.6 5.9 90 0.7 W 15 20 8 11 1022.3 1022.7 0.8
09/01:30am 7.6 3.4 5.9 89 0.8 WSW 17 20 9 11 1022.2 1022.6 0.8
09/01:00am 7.6 3.4 5.9 89 0.8 WSW 17 22 9 12 1022.3 1022.7 0.8
09/12:30am 7.4 3.6 6.0 91 0.7 W 15 20 8 11 1022.2 1022.6 0.8
09/12:00am 7.3 2.7 5.8 90 0.7 W 19 28 10 15 1022.1 1022.5 0.8
 
Date/Time
EST
Temp
°C
App
Temp
°C
Dew
Point
°C
Rel
Hum
%
Delta-T
°C
Wind Press
QNH
hPa
Press
MSL
hPa
Rain since
9am
mm
Dir  Spd
km/h
Gust
km/h
Spd
kts
Gust
kts
08/11:30pm 7.4 1.9 5.7 89 0.8 W 24 39 13 21 1021.9 1022.2 0.8
08/11:00pm 7.3 1.8 5.9 91 0.7 W 24 33 13 18 1022.1 1022.5 0.8
08/10:30pm 7.7 1.0 5.7 87 0.9 WSW 30 41 16 22 1022.1 1022.5 0.8
08/10:00pm 7.8 1.2 5.9 88 0.9 W 30 39 16 21 1022.0 1022.3 0.8
08/09:30pm 7.8 1.2 6.1 89 0.8 W 30 39 16 21 1021.8 1022.1 0.8
08/09:00pm 8.2 3.2 6.3 88 0.9 WSW 22 32 12 17 1021.7 1022.0 0.8
08/08:30pm 8.1 4.2 7.2 94 0.4 WSW 17 24 9 13 1021.4 1021.7 0.8
08/08:00pm 8.1 3.8 7.0 93 0.5 WSW 19 26 10 14 1021.1 1021.4 0.8
08/07:30pm 8.0 4.9 7.2 95 0.4 WSW 13 17 7 9 1021.0 1021.2 0.6
08/07:00pm 8.3 4.8 7.4 94 0.4 WSW 15 22 8 12 1020.6 1020.9 0.4
08/06:30pm 8.6 4.1 7.1 90 0.7 WSW 20 26 11 14 1020.1 1020.4 0.4
08/06:00pm 8.5 4.3 7.3 92 0.6 WSW 19 28 10 15 1019.4 1019.7 0.4
08/05:30pm 8.4 4.1 7.2 92 0.6 WSW 19 28 10 15 1019.0 1019.3 0.4
08/05:00pm 8.4 4.0 7.2 92 0.6 WSW 20 28 11 15 1018.4 1018.6 0.2
08/04:30pm 8.6 4.2 7.2 91 0.7 WSW 20 28 11 15 1018.2 1018.4 0.0
08/04:00pm 8.9 2.5 7.0 88 0.9 WSW 30 43 16 23 1017.6 1017.9 0.0
08/03:35pm 8.9 2.5 7.0 88 0.9 WSW 30 50 16 27 1017.2 1017.4 0.0
08/03:30pm 8.9 2.9 7.2 89 0.8 WSW 28 39 15 21 1017.3 1017.5 0.0
08/03:00pm 9.1 1.8 7.2 88 0.9 WSW 35 50 19 27 1016.9 1017.1 0.0
08/02:30pm 9.2 1.9 7.3 88 0.9 WSW 35 48 19 26 1016.4 1016.6 0.0
08/02:00pm 9.8 2.9 7.1 83 1.3 WSW 33 50 18 27 1016.3 1016.5 0.0
08/01:30pm 9.6 2.6 7.0 84 1.3 SW 33 46 18 25 1016.2 1016.4 0.0
08/01:00pm 9.3 2.8 6.6 83 1.3 WSW 30 43 16 23 1016.4 1016.6 0.0
08/12:30pm 9.6 3.5 6.5 81 1.5 SW 28 39 15 21 1016.5 1016.8 0.0
08/12:00pm 9.6 2.5 5.6 76 1.9 WSW 32 52 17 28 1016.3 1016.5 0.0
08/11:30am 10.4 1.8 4.8 68 2.6 WSW 39 76 21 41 1016.3 1016.5 0.0
08/11:00am 11.0 3.4 6.0 71 2.4 SW 35 59 19 32 1016.2 1016.4 0.0
08/10:34am 10.8 3.3 6.2 73 2.2 WSW 35 56 19 30 1015.7 1015.9 0.0
08/10:30am 10.4 2.9 6.4 76 2.0 WSW 35 50 19 27 1015.7 1015.9 0.0
08/10:00am 9.9 0.0 6.4 79 1.7 WSW 48 72 26 39 1015.4 1015.6 0.0
08/09:30am 10.3 1.3 6.5 77 1.9 WSW 43 61 23 33 1014.9 1015.1 0.0
08/09:02am 9.5 0.2 5.9 78 1.7 WSW 44 65 24 35 1014.6 1014.8 0.0
08/09:00am 9.5 0.4 6.0 79 1.7 WSW 43 56 23 30 1015.0 1015.2 0.0
08/08:47am 9.3 1.7 6.0 80 1.6 WSW 35 54 19 29 1015.1 1015.3 0.0
08/08:30am 9.0 1.4 5.7 80 1.6 WSW 35 50 19 27 1015.0 1015.2 0.0
08/08:02am 8.7 2.4 5.6 81 1.5 WSW 28 48 15 26 1014.8 1015.0 0.0
08/08:00am 8.7 2.7 5.4 80 1.6 WSW 26 48 14 26 1014.7 1014.9 0.0
08/07:30am 8.2 2.1 4.8 79 1.6 WSW 26 43 14 23 1014.4 1014.6 0.0
08/07:00am 7.9 1.4 4.5 79 1.6 W 28 41 15 22 1013.7 1013.9 0.0
08/06:30am 7.9 -0.5 3.9 76 1.8 W 37 48 20 26 1013.3 1013.5 0.0
08/06:00am 7.5 -0.5 3.7 77 1.7 W 35 43 19 23 1013.2 1013.4 0.0
08/05:30am 7.1 0.0 3.5 78 1.6 W 30 39 16 21 1013.2 1013.4 0.0
08/05:00am 7.0 -0.5 3.4 78 1.6 W 32 41 17 22 1013.0 1013.1 0.0
08/04:30am 7.2 -0.9 3.4 77 1.7 W 35 46 19 25 1012.9 1013.0 0.0
08/04:00am 7.0 -0.7 3.4 78 1.6 W 33 41 18 22 1013.3 1013.5 0.0
08/03:30am 7.0 -1.9 3.3 77 1.6 W 39 50 21 27 1013.2 1013.4 0.0
08/03:00am 7.1 0.0 3.3 77 1.7 W 30 48 16 26 1013.5 1013.7 0.0
08/02:30am 6.8 -0.5 2.7 75 1.8 W 30 39 16 21 1014.1 1014.2 0.0
08/02:00am 6.1 -1.2 2.2 76 1.7 W 30 44 16 24 1014.0 1014.1 0.0
08/01:30am 5.3 0.0 2.0 79 1.4 W 19 28 10 15 1014.8 1015.0 0.0
08/01:00am 4.7 -3.3 1.9 82 1.2 W 33 43 18 23 1014.7 1014.9 0.0
08/12:30am 4.2 -2.5 1.4 82 1.2 W 26 33 14 18 1015.2 1015.4 0.0
08/12:00am 4.3 -3.6 1.3 81 1.2 W 32 41 17 22 1015.5 1015.7 0.0
 
Date/Time
EST
Temp
°C
App
Temp
°C
Dew
Point
°C
Rel
Hum
%
Delta-T
°C
Wind Press
QNH
hPa
Press
MSL
hPa
Rain since
9am
mm
Dir  Spd
km/h
Gust
km/h
Spd
kts
Gust
kts
07/11:30pm 3.9 -0.7 1.4 84 1.0 WNW 15 30 8 16 1015.9 1016.1 0.0
07/11:00pm 4.1 -0.4 2.0 86 0.9 NW 15 20 8 11 1016.4 1016.6 0.0
07/10:30pm 4.2 -1.1 1.7 84 1.0 WNW 19 28 10 15 1017.0 1017.2 0.0
07/10:00pm 4.3 -1.3 1.0 79 1.3 WNW 20 26 11 14 1017.1 1017.3 0.0
07/09:30pm 4.5 -2.0 0.5 75 1.6 W 24 37 13 20 1017.1 1017.3 0.0
07/09:00pm 4.5 -3.4 0.8 77 1.5 WSW 32 43 17 23 1017.0 1017.2 0.0
07/08:30pm 4.5 -2.7 0.5 75 1.6 WSW 28 41 15 22 1017.0 1017.2 0.0
07/08:00pm 4.4 -3.8 0.6 76 1.5 WSW 33 54 18 29 1016.6 1016.9 0.0
07/07:59pm 4.4 -3.6 0.4 75 1.6 WSW 32 52 17 28 1016.6 1016.9 0.0
07/07:30pm 4.3 -3.8 -0.1 73 1.7 WSW 32 43 17 23 1016.6 1016.9 0.0
07/07:00pm 4.1 -4.2 -0.5 72 1.8 WSW 33 46 18 25 1016.5 1016.8 0.0
07/06:30pm 4.0 -4.2 -1.0 70 1.9 WSW 32 44 17 24 1016.5 1016.8 0.0
07/06:00pm 3.8 -3.7 -1.2 70 1.9 WSW 28 41 15 22 1016.6 1016.9 0.0
07/05:34pm 3.9 -4.4 -1.5 68 2.1 WSW 32 54 17 29 1016.0 1016.2 0.0
07/05:30pm 3.8 -4.5 -1.5 68 2.0 WSW 32 46 17 25 1016.3 1016.5 0.0
07/05:00pm 3.5 -3.5 -0.7 74 1.6 WSW 26 33 14 18 1015.8 1016.0 0.0
07/04:30pm 3.3 -3.2 0.2 80 1.2 WSW 24 37 13 20 1015.7 1015.9 0.0
07/04:00pm 3.8 -4.8 0.3 78 1.4 SW 35 57 19 31 1015.7 1015.9 0.0
07/03:41pm 5.2 -3.5 -0.8 65 2.4 WSW 35 56 19 30 1015.2 1015.4 0.0
07/03:30pm 5.2 -3.8 0.4 71 1.9 WSW 37 54 20 29 1015.4 1015.6 0.0
07/03:02pm 5.7 -4.3 -1.4 60 2.8 WSW 41 59 22 32 1014.8 1015.0 0.0
07/03:00pm 6.3 -3.2 -0.7 61 2.8 WSW 39 52 21 28 1014.7 1014.9 0.0
07/02:35pm 6.0 -3.9 -1.2 60 2.8 WSW 41 63 22 34 1014.2 1014.3 0.0
07/02:30pm 6.1 -3.4 -0.6 62 2.7 WSW 39 57 21 31 1014.5 1014.7 0.0
07/02:00pm 5.5 -4.7 -0.5 65 2.4 WSW 43 61 23 33 1014.4 1014.6 0.0
07/01:32pm 6.2 -2.3 1.1 70 2.1 WSW 35 57 19 31 1014.1 1014.2 0.0
07/01:30pm 6.3 -1.7 1.4 71 2.1 WSW 33 46 18 25 1014.2 1014.3 0.0
07/01:00pm 5.5 -3.6 1.6 76 1.6 WSW 39 65 21 35 1014.0 1014.1 0.0
07/12:50pm 5.0 -3.4 1.8 80 1.3 WSW 35 54 19 29 1013.8 1014.0 0.0
07/12:30pm 4.5 -3.3 2.0 84 1.0 WSW 32 44 17 24 1014.1 1014.2 0.0
07/12:00pm 4.3 -2.2 2.7 89 0.7 WSW 26 35 14 19 1014.6 1014.8 0.0
07/11:30am 3.8 -5.3 1.8 87 0.8 WSW 39 56 21 30 1014.6 1014.8 0.0
07/11:00am 5.0 -4.3 0.9 75 1.7 WSW 39 56 21 30 1013.7 1013.9 0.0
07/10:51am 4.9 -3.7 0.3 72 1.9 WSW 35 56 19 30 1013.7 1013.9 0.0
07/10:30am 4.8 -4.8 1.3 78 1.4 WSW 41 56 22 30 1013.2 1013.4 0.0
07/10:00am 4.6 -5.3 1.8 82 1.2 WSW 43 56 23 30 1013.1 1013.3 0.0
07/09:30am 3.8 -5.6 0.1 77 1.5 WSW 39 52 21 28 1013.4 1013.6 0.0
07/09:00am 3.5 -5.5 0.0 78 1.4 WSW 37 48 20 26 1013.2 1013.4 3.0
07/08:30am 3.1 -4.6 0.0 80 1.2 WSW 30 39 16 21 1013.3 1013.5 3.0
07/08:00am 2.8 -3.4 0.0 82 1.1 WSW 22 28 12 15 1013.2 1013.4 3.0
07/07:30am 2.6 -4.4 -0.3 81 1.1 WSW 26 41 14 22 1013.1 1013.3 3.0
07/07:00am 2.0 -3.6 0.1 87 0.7 WSW 19 30 10 16 1012.9 1013.0 3.0
07/06:30am 1.4 -4.2 0.1 91 0.5 SW 19 26 10 14 1012.8 1012.9 3.0
07/06:00am 1.4 -3.0 0.1 91 0.5 SW 13 22 7 12 1012.9 1013.0 2.4
07/05:30am 1.8 -3.3 0.5 91 0.5 SW 17 24 9 13 1012.6 1012.7 2.0
07/05:00am 1.9 -4.6 0.6 91 0.5 SW 24 35 13 19 1012.3 1012.5 1.8
07/04:30am 3.1 -5.0 1.2 87 0.8 SW 33 48 18 26 1012.0 1012.2 1.0
07/04:00am 3.9 -4.0 2.1 88 0.8 SW 33 43 18 23 1011.7 1011.8 0.8
07/03:30am 5.3 -1.8 3.5 88 0.8 SW 30 39 16 21 1011.5 1011.6 0.0
07/03:00am 5.7 0.6 3.2 84 1.1 SSW 19 24 10 13 1011.5 1011.6 0.0
07/02:30am 4.8 0.3 2.2 83 1.1 W 15 19 8 10 1011.9 1012.0 0.0
07/02:00am 4.2 1.2 1.7 84 1.0 NW 7 11 4 6 1012.0 1012.2 0.0
07/01:30am 4.3 -0.6 2.2 86 0.9 NW 17 19 9 10 1012.2 1012.4 0.0
07/01:00am 4.5 1.1 1.7 82 1.2 N 9 11 5 6 1012.6 1012.7 0.0
07/12:30am 6.4 2.7 2.5 76 1.7 N 11 15 6 8 1013.2 1013.4 0.0
07/12:00am 5.9 2.6 2.4 78 1.5 N 9 13 5 7 1013.7 1013.9 0.0
 
Date/Time
EST
Temp
°C
App
Temp
°C
Dew
Point
°C
Rel
Hum
%
Delta-T
°C
Wind Press
QNH
hPa
Press
MSL
hPa
Rain since
9am
mm
Dir  Spd
km/h
Gust
km/h
Spd
kts
Gust
kts
06/11:30pm 6.0 2.7 2.3 77 1.6 NNE 9 13 5 7 1013.7 1013.9 0.0
06/11:00pm 5.7 3.3 2.4 79 1.4 NW 4 6 2 3 1013.8 1014.0 0.0
06/10:30pm 5.3 1.9 2.0 79 1.4 NW 9 15 5 8 1014.1 1014.2 0.0
06/10:00pm 6.9 3.2 2.4 73 1.9 NNW 11 13 6 7 1014.4 1014.6 0.0
06/09:30pm 6.4 2.7 2.3 75 1.8 NW 11 15 6 8 1014.7 1014.9 0.0
06/09:00pm 7.1 1.9 2.6 73 2.0 NW 19 22 10 12 1014.8 1015.0 0.0
06/08:30pm 7.4 2.2 2.7 72 2.1 NNW 19 22 10 12 1014.7 1014.9 0.0
06/08:00pm 8.0 3.7 3.1 71 2.2 NW 15 17 8 9 1014.8 1015.0 0.0
06/07:30pm 8.8 6.9 7.7 93 0.5 N 7 9 4 5 1014.9 1015.1 0.0
06/07:00pm 9.8 8.6 8.2 90 0.8 NE 4 7 2 4 1014.9 1015.1 0.0
06/06:30pm 11.3 9.8 9.2 87 1.1 SSW 7 9 4 5 1015.0 1015.2 0.0

Other formats

Comma delimited format used in spreadsheet applications
http://www.bom.gov.au/fwo/IDN60801/IDN60801.94929.axf

JavaScript Object Notation format (JSON) in row-major order
http://www.bom.gov.au/fwo/IDN60801/IDN60801.94929.json

Data quality

Most of these data are generated automatically and are frequently updated. Quality checks on data are not normally performed. It is possible for incorrect values to appear. Refer to information at About Latest Weather Observations and please check the disclaimer before using these data.